Jacksonville International Airport Jacksonville US
ICAO: KJAX
IATA: JAX
Category: Large
Scheduled Services: Yes

Elevation: 30 ft
TransAlt. 18000 ft.

Airport Communications:
APP/DEP:118
ATIS:125.85
CLNC DEL:119.5
GND:121.9
ANG MAINT:25.125
ANG SOF:27.39
ANG COMD POST:25.125
TWR:118.3
UNICOM:122.95

KJAX Zoom In..

Runways:

(A) RW 08 length 10000 ft width 150 ft
ILS 110.70 / hdg 77

(B) RW 14 length 7701 ft width 150 ft
ILS 110.50 / hdg 137

(C) RW 26 length 10000 ft width 150 ft
ILS 110.30 / hdg 257

(D) RW 32 length 7701 ft width 150 ft
---- / hdg 317

Location; KJAX
Day. 04 / Time. 01.56 Zulu
* Altimeter: 29.90
* Temperature: 28° c. 82.4°f.
* Wind from: 140° Speed 07 kn.
Dewpoint: 25° c.
Visibility: 10 Statute Miles.
Clouds: Few 3000 ft.
Clouds: Scattered 25000 ft.
Conditions: Cumulonimbus.

KJAX 040156Z 14007KT 10SM FEW030 SCT250 28/25 A2990 RMK AO2 SLP125 OCNL LTGIC DSNT N CB DSNT N T02780250

Going to: --> -->


Wind From 140°
Speed 07 kn.

 
 
jpsmedia worldairports.se 2020   terms of use